Pagina principale
METAR-TAF:

METAR-TAF

Aeroporti :

Foggia, Italia

Aeroporto di Amendola

latitudine: 41-32N, longitudine: 015-43E, altezza: 57 m

Osservazione

Il bollettino è stato emesso 43 minuti fa, alle 12:55 UTC
Vento 15 kt da sud-ovest
Temperature 25°C
Umidità 36%
Pressione 1009 hPa
Visibilità 10 km o più
Nubi sparse ad un'altezza di 3000 ft

METAR: LIBA 191255Z 23015KT 9999 SCT030 25/09 Q1009 RMK SCT VIS MIN 9999 WIND THR11 23020KT WIND THR29 /////KT BLU

Ora: 15:38 (13:38 UTC)

Previsione

Il bollettino è stato emesso 2 ore e 38 minuti fa, alle 11:00 UTC
Previsione valida dal 19 alle 12 UTC al 19 alle 21 UTC
Vento 15 kt da ovest/sud-ovest
Visibilità 10 km o più
Poco nuvoloso ad un'altezza di 3000 ft
Nubi sparse ad un'altezza di 6000 ft
Temporaneamente
dal 19 alle 12 UTC al 19 alle 16 UTC
Vento 15 kt da ovest/sud-ovest con raffiche fino a 25 kt
Nubi sparse ad un'altezza di 3000 ft

TAF: LIBA 191100Z 1912/1921 24015KT 9999 FEW030 SCT060 TEMPO 1912/1916 24015G25KT SCT030

Osservazioni e previsioni meteorologiche di più di 4000 aeroporti (messaggi METAR e TAF).

Le stazioni disponibili sono rappresentate dai dischi gialli e rossi sulla carta.

Puntare il mouse per vedere il nome della stazione.

Clicca sopra per visualizzare le osservazioni e previsioni meteorologiche.

Per cambiare la mappa : fare clic sui pulsanti verdi con una croce nera per ingrandire, il pulsante verde con un trattino per diminuire, o sulla freccia verde per le mappe adiacenti.


METAR-TAF: